createdAt,value
2018-03-04T13:00:29.911Z,50.60
2018-03-04T13:02:57.892Z,52.93
2018-03-04T13:05:25.036Z,47.13
2018-03-04T13:07:52.661Z,48.50
2018-03-04T13:10:19.630Z,47.33
2018-03-04T13:12:46.655Z,48.43
2018-03-04T13:15:13.604Z,50.30
2018-03-04T13:17:40.481Z,48.77
2018-03-04T13:20:08.182Z,50.83
2018-03-04T13:22:35.151Z,50.30
2018-03-04T13:25:02.055Z,53.10
2018-03-04T13:27:29.757Z,59.03
2018-03-04T13:29:56.658Z,57.43
2018-03-04T13:32:24.389Z,57.70
2018-03-04T13:34:51.335Z,57.33
2018-03-04T13:37:18.317Z,57.30
2018-03-04T13:39:46.001Z,61.60
2018-03-04T13:42:13.007Z,63.80
2018-03-04T13:44:39.948Z,59.53
2018-03-04T13:47:06.857Z,59.47
2018-03-04T13:49:34.124Z,59.93
2018-03-04T13:52:01.053Z,59.73
2018-03-04T13:54:28.062Z,58.70
2018-03-04T13:56:55.718Z,59.80
2018-03-04T13:59:23.409Z,61.40
2018-03-04T14:01:50.364Z,57.47
2018-03-04T14:04:17.246Z,56.53
2018-03-04T14:06:44.142Z,59.43
2018-03-04T14:09:11.095Z,66.70
2018-03-04T14:11:38.033Z,64.00
2018-03-04T14:14:05.006Z,62.90
2018-03-04T14:16:32.006Z,56.23
2018-03-04T14:18:59.694Z,62.53
2018-03-04T14:21:26.580Z,60.50
2018-03-04T14:23:53.524Z,57.53
2018-03-04T14:26:20.450Z,60.03
2018-03-04T14:28:47.390Z,54.47
2018-03-04T14:31:14.282Z,53.53
2018-03-04T14:33:41.261Z,53.57
2018-03-04T14:36:08.942Z,52.63
2018-03-04T14:38:35.841Z,54.70
2018-03-04T14:41:02.823Z,59.93
2018-03-04T14:43:30.500Z,56.57
2018-03-04T14:45:57.507Z,56.70
2018-03-04T14:48:24.461Z,53.63
2018-03-04T14:50:52.131Z,48.23
2018-03-04T14:53:22.252Z,51.60
2018-03-04T14:55:54.314Z,55.90
2018-03-04T14:58:22.532Z,54.10
2018-03-04T15:00:51.161Z,50.00
2018-03-04T15:03:18.041Z,57.00
2018-03-04T15:05:45.703Z,55.80
2018-03-04T15:08:12.574Z,47.47
2018-03-04T15:10:39.789Z,51.93
2018-03-04T15:13:07.433Z,45.70
2018-03-04T15:15:34.799Z,47.67
2018-03-04T15:18:02.544Z,43.17
2018-03-04T15:20:30.770Z,47.20
2018-03-04T15:23:08.178Z,51.07
2018-03-04T15:25:35.629Z,50.63
2018-03-04T15:28:02.704Z,47.93
2018-03-04T15:30:29.620Z,50.63
2018-03-04T15:32:56.571Z,49.30
2018-03-04T15:35:23.483Z,49.40
2018-03-04T15:37:52.356Z,45.13
2018-03-04T15:40:20.488Z,45.17
2018-03-04T15:42:47.444Z,47.50
2018-03-04T15:45:14.373Z,48.33
2018-03-04T15:47:48.793Z,48.03
2018-03-04T15:50:16.099Z,48.93
2018-03-04T15:52:43.741Z,48.63
2018-03-04T15:55:10.636Z,48.50
2018-03-04T15:57:38.730Z,47.57
2018-03-04T16:00:08.830Z,42.97
2018-03-04T16:02:38.548Z,51.30
2018-03-04T16:05:08.460Z,50.70
2018-03-04T16:07:44.805Z,46.93
2018-03-04T16:10:20.500Z,50.17
2018-03-04T16:12:57.939Z,45.87
2018-03-04T16:15:30.749Z,46.90
2018-03-04T16:18:03.554Z,46.07
2018-03-04T16:20:39.338Z,46.63
2018-03-04T16:23:07.032Z,44.60
2018-03-04T16:25:41.337Z,42.77
2018-03-04T16:28:14.687Z,46.10
2018-03-04T16:30:46.388Z,39.77
2018-03-04T16:33:23.335Z,31.80
2018-03-04T16:35:52.009Z,38.03
2018-03-04T16:38:19.079Z,35.50
2018-03-04T16:40:46.003Z,35.40
2018-03-04T16:43:12.999Z,36.10
2018-03-04T16:45:43.486Z,36.97
2018-03-04T16:48:10.483Z,40.60
2018-03-04T16:50:37.415Z,36.70
2018-03-04T16:53:04.458Z,33.07
2018-03-04T16:55:32.379Z,33.80
2018-03-04T16:58:01.628Z,35.67
2018-03-04T17:00:28.651Z,28.17
2018-03-04T17:05:32.944Z,27.20
2018-03-04T17:07:59.934Z,27.77
2018-03-04T17:10:31.794Z,28.37
2018-03-04T17:13:00.902Z,28.00
2018-03-04T17:15:39.139Z,27.00
2018-03-04T17:18:10.268Z,30.40
2018-03-04T17:20:45.433Z,30.10
2018-03-04T17:23:18.830Z,26.10
2018-03-04T17:25:45.706Z,23.73
2018-03-04T17:28:22.154Z,25.83
2018-03-04T17:35:06.137Z,25.77
2018-03-04T17:37:34.572Z,25.47
2018-03-04T17:40:04.420Z,23.93
2018-03-04T17:42:38.759Z,27.53
2018-03-04T17:45:11.573Z,28.37
2018-03-04T17:47:39.130Z,22.53
2018-03-04T17:50:09.845Z,26.60
2018-03-04T17:52:37.696Z,21.00
2018-03-04T17:55:06.913Z,23.70
2018-03-04T17:57:40.317Z,22.80
2018-03-04T18:00:07.979Z,29.27
2018-03-04T18:02:35.000Z,22.30
2018-03-04T18:05:01.930Z,23.10
2018-03-04T18:07:29.649Z,21.03
2018-03-04T18:09:56.684Z,23.97
2018-03-04T18:12:23.552Z,20.67
2018-03-04T18:14:50.532Z,27.13
2018-03-04T18:17:17.433Z,24.37
2018-03-04T18:19:44.388Z,26.50
2018-03-04T18:22:11.335Z,24.17
2018-03-04T18:24:38.239Z,25.23
2018-03-04T18:27:05.952Z,23.17
2018-03-04T18:29:32.911Z,27.20
2018-03-04T18:31:59.784Z,20.87
2018-03-04T18:34:27.463Z,22.17
2018-03-04T18:36:55.089Z,23.00
2018-03-04T18:39:22.822Z,26.05
2018-03-04T18:41:49.714Z,23.10
2018-03-04T18:44:16.708Z,25.93
2018-03-04T18:46:43.581Z,25.60
2018-03-04T18:49:10.463Z,30.77
2018-03-04T18:51:37.489Z,30.40
2018-03-04T18:54:04.612Z,28.53
2018-03-04T18:56:31.524Z,34.00
2018-03-04T18:58:58.472Z,22.03
2018-03-04T19:01:25.426Z,23.38
2018-03-04T19:03:52.355Z,22.60
2018-03-04T19:06:19.288Z,25.08
2018-03-04T19:08:47.051Z,24.23
2018-03-04T19:11:13.953Z,26.65
2018-03-04T19:13:40.892Z,28.53
2018-03-04T19:16:07.795Z,27.40
2018-03-04T19:18:34.736Z,29.50
2018-03-04T19:21:01.643Z,26.83
2018-03-04T19:23:29.476Z,26.10
2018-03-04T19:25:56.427Z,26.08
2018-03-04T19:28:23.400Z,27.13
2018-03-04T19:30:50.317Z,28.97
2018-03-04T19:33:17.284Z,32.03
2018-03-04T19:35:44.307Z,32.03
2018-03-04T19:38:11.326Z,28.80
2018-03-04T19:40:38.263Z,29.70
2018-03-04T19:43:05.233Z,33.57
2018-03-04T19:45:32.237Z,33.63
2018-03-04T19:48:02.276Z,33.17
2018-03-04T19:50:29.212Z,34.27
2018-03-04T19:52:56.981Z,31.30
2018-03-04T19:55:27.766Z,33.17
2018-03-04T19:57:58.638Z,38.00
2018-03-04T20:00:37.741Z,33.83
2018-03-04T20:03:09.115Z,32.30
2018-03-04T20:05:40.871Z,32.10
2018-03-04T20:10:54.518Z,33.72
2018-03-04T20:13:34.915Z,35.07
2018-03-04T20:16:16.812Z,35.23
2018-03-04T20:18:57.729Z,39.47
2018-03-04T20:21:39.398Z,40.50
2018-03-04T20:26:58.727Z,32.70
2018-03-04T20:29:26.456Z,32.83
2018-03-04T20:31:59.238Z,32.03
2018-03-04T20:34:27.330Z,40.03
2018-03-04T20:37:01.461Z,33.60
2018-03-04T20:39:31.363Z,38.23
2018-03-04T20:41:59.637Z,35.25
2018-03-04T20:44:26.527Z,39.87
2018-03-04T20:47:01.959Z,34.80
2018-03-04T20:49:31.591Z,34.00
2018-03-04T20:52:04.772Z,35.27
2018-03-04T20:54:33.030Z,42.27
2018-03-04T20:57:09.571Z,34.90
2018-03-04T20:59:50.658Z,38.20
2018-03-04T21:02:18.268Z,39.73
2018-03-04T21:04:45.255Z,39.30
2018-03-04T21:07:16.125Z,33.70
2018-03-04T21:09:43.107Z,36.88
2018-03-04T21:12:10.021Z,37.92
2018-03-04T21:14:37.002Z,33.00
2018-03-04T21:17:04.754Z,29.85
2018-03-04T21:19:31.760Z,35.22
2018-03-04T21:27:43.984Z,35.92
2018-03-04T21:30:24.106Z,32.07
2018-03-04T21:33:02.607Z,33.23
2018-03-04T21:35:46.209Z,34.67
2018-03-04T21:38:15.432Z,35.90
2018-03-04T21:40:42.585Z,31.60
2018-03-04T21:43:10.635Z,32.97
2018-03-04T21:45:38.438Z,30.73
2018-03-04T21:48:05.453Z,35.43
2018-03-04T21:50:32.335Z,36.30
2018-03-04T21:52:59.282Z,33.87
2018-03-04T21:55:26.397Z,36.73
2018-03-04T21:57:53.419Z,32.73
2018-03-04T22:00:23.871Z,37.17
2018-03-04T22:02:52.188Z,34.67
2018-03-04T22:05:19.932Z,36.00
2018-03-04T22:07:48.407Z,33.97
2018-03-04T22:10:16.793Z,32.37
2018-03-04T22:12:43.750Z,40.07
2018-03-04T22:15:12.204Z,36.13
2018-03-04T22:17:40.828Z,37.67
2018-03-04T22:20:07.885Z,36.20
2018-03-04T22:22:34.904Z,40.03
2018-03-04T22:25:16.159Z,34.17
2018-03-04T22:27:56.879Z,30.37
2018-03-04T22:30:37.568Z,33.83
2018-03-04T22:33:19.424Z,27.20
2018-03-04T22:35:57.358Z,30.60
2018-03-04T22:38:25.490Z,30.17
2018-03-04T22:40:52.431Z,28.80
2018-03-04T22:43:19.380Z,28.50
2018-03-04T22:45:46.316Z,30.77
2018-03-04T22:48:13.191Z,31.40
2018-03-04T22:50:40.126Z,31.20
2018-03-04T22:53:07.088Z,29.07
2018-03-04T22:55:35.376Z,32.67
2018-03-04T22:58:03.649Z,35.07
2018-03-04T23:00:30.687Z,25.53
2018-03-04T23:02:58.160Z,33.70
2018-03-04T23:05:25.167Z,30.60
2018-03-04T23:07:52.060Z,32.33
2018-03-04T23:10:20.201Z,34.70
2018-03-04T23:12:47.161Z,32.80
2018-03-04T23:15:14.057Z,35.90
2018-03-04T23:17:42.218Z,38.55
2018-03-04T23:20:10.525Z,36.27
2018-03-04T23:22:51.270Z,33.63
2018-03-04T23:25:32.415Z,30.87
2018-03-04T23:28:14.574Z,40.03
2018-03-04T23:30:54.658Z,29.90
2018-03-04T23:33:35.630Z,34.77
2018-03-04T23:36:16.026Z,30.13
2018-03-04T23:38:56.327Z,30.10
2018-03-04T23:41:24.019Z,27.30
2018-03-04T23:43:54.020Z,33.45
2018-03-04T23:46:22.698Z,31.53
2018-03-04T23:48:50.988Z,32.13
2018-03-04T23:51:19.399Z,36.23
2018-03-04T23:53:46.384Z,29.37
2018-03-04T23:56:13.272Z,31.20
2018-03-04T23:58:41.216Z,35.50
